sensor_id;sensor_type;location;lat;lon;timestamp;P1;P2;P0
57798;PMS7003;43626;53.866;30.298;2024-03-06T01:55:35;7.4;6.4;4.2
57798;PMS7003;43626;53.866;30.298;2024-03-06T01:59:22;7.8;6.8;4
57798;PMS7003;43626;53.866;30.298;2024-03-06T02:04:34;8;6.4;4
57798;PMS7003;43626;53.866;30.298;2024-03-06T02:09:22;10;7.4;4.8
57798;PMS7003;43626;53.866;30.298;2024-03-06T02:14:22;7.4;6.6;4.4
57798;PMS7003;43626;53.866;30.298;2024-03-06T02:19:22;8;7.2;4.2
57798;PMS7003;43626;53.866;30.298;2024-03-06T02:24:22;7.6;6.6;3.8
57798;PMS7003;43626;53.866;30.298;2024-03-06T02:29:56;8.2;6.6;4
57798;PMS7003;43626;53.866;30.298;2024-03-06T02:35:10;10.8;8.4;5
57798;PMS7003;43626;53.866;30.298;2024-03-06T02:39:56;10.8;8.4;5
57798;PMS7003;43626;53.866;30.298;2024-03-06T02:44:36;15;11.6;6
57798;PMS7003;43626;53.866;30.298;2024-03-06T02:49:40;10.8;10;6
57798;PMS7003;43626;53.866;30.298;2024-03-06T02:54:50;12;8.8;5
57798;PMS7003;43626;53.866;30.298;2024-03-06T03:00:00;10;8.8;5.6
57798;PMS7003;43626;53.866;30.298;2024-03-06T03:04:40;9;8.2;5.2
57798;PMS7003;43626;53.866;30.298;2024-03-06T03:10:00;9.8;7.2;4.6
57798;PMS7003;43626;53.866;30.298;2024-03-06T03:14:50;7.6;7.2;4
57798;PMS7003;43626;53.866;30.298;2024-03-06T03:20:10;8;7;4.4
57798;PMS7003;43626;53.866;30.298;2024-03-06T03:24:46;8;7;4.4
57798;PMS7003;43626;53.866;30.298;2024-03-06T03:29:30;9.4;7.4;4.4
57798;PMS7003;43626;53.866;30.298;2024-03-06T03:34:46;9.6;7.4;4
57798;PMS7003;43626;53.866;30.298;2024-03-06T03:39:28;9.6;8.4;5
57798;PMS7003;43626;53.866;30.298;2024-03-06T03:44:22;8.8;7.8;4.4
57798;PMS7003;43626;53.866;30.298;2024-03-06T03:49:50;10.5;8.5;5.3
57798;PMS7003;43626;53.866;30.298;2024-03-06T03:54:28;9.8;7.6;4
57798;PMS7003;43626;53.866;30.298;2024-03-06T03:59:22;9;7.4;4.6
57798;PMS7003;43626;53.866;30.298;2024-03-06T04:04:56;9.2;7;4.4
57798;PMS7003;43626;53.866;30.298;2024-03-06T04:10:04;8;6.6;4.4
57798;PMS7003;43626;53.866;30.298;2024-03-06T04:15:10;8.4;7.2;4.4
57798;PMS7003;43626;53.866;30.298;2024-03-06T04:19:30;8.4;7.2;4.4
57798;PMS7003;43626;53.866;30.298;2024-03-06T04:24:50;8;6.4;4.2
57798;PMS7003;43626;53.866;30.298;2024-03-06T04:30:10;12;9;4.8
57798;PMS7003;43626;53.866;30.298;2024-03-06T04:35:00;12;9;4.8
57798;PMS7003;43626;53.866;30.298;2024-03-06T04:39:34;8;6.6;4.4
57798;PMS7003;43626;53.866;30.298;2024-03-06T04:44:50;7.6;6.4;4
57798;PMS7003;43626;53.866;30.298;2024-03-06T04:49:28;7.8;7.8;4.5
57798;PMS7003;43626;53.866;30.298;2024-03-06T04:55:10;9;6.2;3.6
57798;PMS7003;43626;53.866;30.298;2024-03-06T04:59:46;9;6.2;3.6
57798;PMS7003;43626;53.866;30.298;2024-03-06T05:04:52;8.4;6.8;4
57798;PMS7003;43626;53.866;30.298;2024-03-06T05:09:28;9.2;7;5
57798;PMS7003;43626;53.866;30.298;2024-03-06T05:14:48;9.2;7.2;4.4
57798;PMS7003;43626;53.866;30.298;2024-03-06T05:19:22;8.8;6.6;4
57798;PMS7003;43626;53.866;30.298;2024-03-06T05:24:22;9;7;3.8
57798;PMS7003;43626;53.866;30.298;2024-03-06T05:29:46;10.8;7.6;4.4
57798;PMS7003;43626;53.866;30.298;2024-03-06T05:34:42;8.4;7.4;4.8
57798;PMS7003;43626;53.866;30.298;2024-03-06T05:40:00;9.4;7;3.8
57798;PMS7003;43626;53.866;30.298;2024-03-06T05:44:56;10.6;8.6;5.4
57798;PMS7003;43626;53.866;30.298;2024-03-06T05:50:10;11.6;9.2;5.4
57798;PMS7003;43626;53.866;30.298;2024-03-06T05:54:36;11.6;9.2;5.4
57798;PMS7003;43626;53.866;30.298;2024-03-06T06:00:10;9.2;8;5
57798;PMS7003;43626;53.866;30.298;2024-03-06T06:04:56;9.2;8;5
57798;PMS7003;43626;53.866;30.298;2024-03-06T06:09:24;12.6;10.4;6.2
57798;PMS7003;43626;53.866;30.298;2024-03-06T06:14:28;11;8.4;5
57798;PMS7003;43626;53.866;30.298;2024-03-06T06:19:50;13.4;10;5.8
57798;PMS7003;43626;53.866;30.298;2024-03-06T06:25:10;12;9.6;5.2
57798;PMS7003;43626;53.866;30.298;2024-03-06T06:30:10;9.4;8.6;5.8
57798;PMS7003;43626;53.866;30.298;2024-03-06T06:34:42;9.4;8.6;5.8
57798;PMS7003;43626;53.866;30.298;2024-03-06T06:40:10;11.4;8.8;6
57798;PMS7003;43626;53.866;30.298;2024-03-06T06:45:12;9;7.8;5.2
57798;PMS7003;43626;53.866;30.298;2024-03-06T06:49:58;9;7.8;5.2
57798;PMS7003;43626;53.866;30.298;2024-03-06T06:54:22;10.5;9;5.3
57798;PMS7003;43626;53.866;30.298;2024-03-06T06:59:38;10.4;8.6;5.6
57798;PMS7003;43626;53.866;30.298;2024-03-06T07:04:40;10.6;9.8;6.2
57798;PMS7003;43626;53.866;30.298;2024-03-06T07:09:30;13.2;10.6;6.4
57798;PMS7003;43626;53.866;30.298;2024-03-06T07:14:22;22.8;18.6;9
57798;PMS7003;43626;53.866;30.298;2024-03-06T07:19:30;17;14.2;7.4
57798;PMS7003;43626;53.866;30.298;2024-03-06T07:25:04;14.8;11.8;6.6
57798;PMS7003;43626;53.866;30.298;2024-03-06T07:29:22;14.8;11.8;6.6
57798;PMS7003;43626;53.866;30.298;2024-03-06T07:35:12;13.4;12;7.4
57798;PMS7003;43626;53.866;30.298;2024-03-06T07:40:02;13.4;12;7.4
57798;PMS7003;43626;53.866;30.298;2024-03-06T07:44:54;14.8;12.6;7
57798;PMS7003;43626;53.866;30.298;2024-03-06T07:49:42;14.4;12.8;8
57798;PMS7003;43626;53.866;30.298;2024-03-06T07:54:52;15.8;12.3;7.5
57798;PMS7003;43626;53.866;30.298;2024-03-06T08:00:12;14.2;11;6.6
57798;PMS7003;43626;53.866;30.298;2024-03-06T08:05:12;17;13.4;8.4
57798;PMS7003;43626;53.866;30.298;2024-03-06T08:09:30;17;13.4;8.4
57798;PMS7003;43626;53.866;30.298;2024-03-06T08:15:12;15.2;11.8;7
57798;PMS7003;43626;53.866;30.298;2024-03-06T08:20:12;20.2;16;8.2
57798;PMS7003;43626;53.866;30.298;2024-03-06T08:24:58;20.2;16;8.2
57798;PMS7003;43626;53.866;30.298;2024-03-06T08:30:12;115.6;92.8;44.4
57798;PMS7003;43626;53.866;30.298;2024-03-06T08:34:52;115.6;92.8;44.4
57798;PMS7003;43626;53.866;30.298;2024-03-06T08:39:42;32;26.4;15.6
57798;PMS7003;43626;53.866;30.298;2024-03-06T08:44:30;18.2;15.8;8.4
57798;PMS7003;43626;53.866;30.298;2024-03-06T08:49:30;23.2;19;10.4
57798;PMS7003;43626;53.866;30.298;2024-03-06T08:54:22;40.3;34;18.8
57798;PMS7003;43626;53.866;30.298;2024-03-06T08:59:52;53.8;42.8;22.6
57798;PMS7003;43626;53.866;30.298;2024-03-06T09:04:30;48.4;39.4;19.6
57798;PMS7003;43626;53.866;30.298;2024-03-06T09:10:12;13.8;13.8;8.4
57798;PMS7003;43626;53.866;30.298;2024-03-06T09:14:58;13.8;13.8;8.4
57798;PMS7003;43626;53.866;30.298;2024-03-06T09:19:30;15.6;12.6;8.2
57798;PMS7003;43626;53.866;30.298;2024-03-06T09:25:12;13.6;11.2;7.2
57798;PMS7003;43626;53.866;30.298;2024-03-06T09:29:24;13.6;11.2;7.2
57798;PMS7003;43626;53.866;30.298;2024-03-06T09:35:02;12.2;10.6;6.4
57798;PMS7003;43626;53.866;30.298;2024-03-06T09:39:22;10.2;8.4;5
57798;PMS7003;43626;53.866;30.298;2024-03-06T09:44:50;14.2;11.6;7
57798;PMS7003;43626;53.866;30.298;2024-03-06T09:49:50;20.6;16.6;9.6
57798;PMS7003;43626;53.866;30.298;2024-03-06T09:55:12;14.2;11.4;7.4
57798;PMS7003;43626;53.866;30.298;2024-03-06T09:59:40;14.2;11.4;7.4
57798;PMS7003;43626;53.866;30.298;2024-03-06T10:05:02;11.6;8.8;5.4
57798;PMS7003;43626;53.866;30.298;2024-03-06T10:09:58;10.4;8.4;5.6
57798;PMS7003;43626;53.866;30.298;2024-03-06T10:14:30;10.8;9.2;6
57798;PMS7003;43626;53.866;30.298;2024-03-06T10:20:20;13.6;11;6.6
57798;PMS7003;43626;53.866;30.298;2024-03-06T10:24:23;13.6;11;6.6
57798;PMS7003;43626;53.866;30.298;2024-03-06T10:30:02;12.2;10.4;6.2
57798;PMS7003;43626;53.866;30.298;2024-03-06T10:34:52;10.8;10;5.8
57798;PMS7003;43626;53.866;30.298;2024-03-06T10:39:24;9.6;8.4;5.4
57798;PMS7003;43626;53.866;30.298;2024-03-06T10:45:13;12.8;10;6
57798;PMS7003;43626;53.866;30.298;2024-03-06T10:49:59;12.8;10;6
57798;PMS7003;43626;53.866;30.298;2024-03-06T10:54:30;12.5;10;5.5
57798;PMS7003;43626;53.866;30.298;2024-03-06T10:59:50;10.2;8.4;5
57798;PMS7003;43626;53.866;30.298;2024-03-06T11:05:12;10;9.4;5.6
57798;PMS7003;43626;53.866;30.298;2024-03-06T11:09:37;10;9.4;5.6
57798;PMS7003;43626;53.866;30.298;2024-03-06T11:14:30;9.8;8.8;5.4
57798;PMS7003;43626;53.866;30.298;2024-03-06T11:19:32;11.2;10.2;6
57798;PMS7003;43626;53.866;30.298;2024-03-06T11:24:31;16;13.4;9
57798;PMS7003;43626;53.866;30.298;2024-03-06T11:30:04;13.2;12.2;7.4
57798;PMS7003;43626;53.866;30.298;2024-03-06T11:34:22;13;10;6.6
57798;PMS7003;43626;53.866;30.298;2024-03-06T11:40:12;16.2;13.4;7.4
57798;PMS7003;43626;53.866;30.298;2024-03-06T11:44:55;16.2;13.4;7.4
57798;PMS7003;43626;53.866;30.298;2024-03-06T11:49:58;14.4;11.8;7.6
57798;PMS7003;43626;53.866;30.298;2024-03-06T11:54:30;16.8;14.4;9
57798;PMS7003;43626;53.866;30.298;2024-03-06T11:59:38;12.3;10.5;7
57798;PMS7003;43626;53.866;30.298;2024-03-06T12:04:30;13.8;12.4;7.8
57798;PMS7003;43626;53.866;30.298;2024-03-06T12:09:58;17.4;13;7.8
57798;PMS7003;43626;53.866;30.298;2024-03-06T12:14:30;13.4;10.6;6.8
57798;PMS7003;43626;53.866;30.298;2024-03-06T12:19:22;14;11;7.6
57798;PMS7003;43626;53.866;30.298;2024-03-06T12:25:17;14.2;11.4;7
57798;PMS7003;43626;53.866;30.298;2024-03-06T12:29:22;14.2;11.4;7
57798;PMS7003;43626;53.866;30.298;2024-03-06T12:35:05;14.4;10.8;6.4
57798;PMS7003;43626;53.866;30.298;2024-03-06T12:40:05;14.2;11;6.6
57798;PMS7003;43626;53.866;30.298;2024-03-06T12:45:02;14.2;11;6.6
57798;PMS7003;43626;53.866;30.298;2024-03-06T12:49:22;12.8;10.6;6.4
57798;PMS7003;43626;53.866;30.298;2024-03-06T12:55:12;12;10.3;6.8
57798;PMS7003;43626;53.866;30.298;2024-03-06T13:00:12;11.4;10.4;6.4
57798;PMS7003;43626;53.866;30.298;2024-03-06T13:05:12;13.8;11.4;7
57798;PMS7003;43626;53.866;30.298;2024-03-06T13:09:48;13.8;11.4;7
57798;PMS7003;43626;53.866;30.298;2024-03-06T13:15:12;15.4;12.2;7.6
57798;PMS7003;43626;53.866;30.298;2024-03-06T13:19:32;15.4;12.2;7.6
57798;PMS7003;43626;53.866;30.298;2024-03-06T13:24:58;13.8;11.6;7.2
57798;PMS7003;43626;53.866;30.298;2024-03-06T13:30:12;16;12.8;8
57798;PMS7003;43626;53.866;30.298;2024-03-06T13:35:12;14;12.4;8.2
57798;PMS7003;43626;53.866;30.298;2024-03-06T13:39:23;14;12.4;8.2
57798;PMS7003;43626;53.866;30.298;2024-03-06T13:44:30;12;10.8;6.8
57798;PMS7003;43626;53.866;30.298;2024-03-06T13:49:42;13.4;10.8;6.2
57798;PMS7003;43626;53.866;30.298;2024-03-06T13:54:22;15.8;13;8
57798;PMS7003;43626;53.866;30.298;2024-03-06T13:59:52;14.8;12.8;8
57798;PMS7003;43626;53.866;30.298;2024-03-06T14:04:38;15;12.8;8
57798;PMS7003;43626;53.866;30.298;2024-03-06T14:10:12;12.8;11.8;7.4
57798;PMS7003;43626;53.866;30.298;2024-03-06T14:14:58;12.8;11.8;7.4
57798;PMS7003;43626;53.866;30.298;2024-03-06T14:19:30;12.2;10.8;7.2
57798;PMS7003;43626;53.866;30.298;2024-03-06T14:24:34;13.8;12;7.6
57798;PMS7003;43626;53.866;30.298;2024-03-06T14:29:52;18.6;16;10.2
57798;PMS7003;43626;53.866;30.298;2024-03-06T14:35:02;17.2;15.6;10
57798;PMS7003;43626;53.866;30.298;2024-03-06T14:39:31;21.4;18.2;11.6
57798;PMS7003;43626;53.866;30.298;2024-03-06T14:45:02;25;21.8;14.2
57798;PMS7003;43626;53.866;30.298;2024-03-06T14:49:58;18.4;16.4;10.6
57798;PMS7003;43626;53.866;30.298;2024-03-06T14:55:12;15.5;13;8.3
57798;PMS7003;43626;53.866;30.298;2024-03-06T14:59:30;15.5;13;8.3
57798;PMS7003;43626;53.866;30.298;2024-03-06T15:04:54;16.2;13.4;8.8
57798;PMS7003;43626;53.866;30.298;2024-03-06T15:09:40;19;17.8;11.4
57798;PMS7003;43626;53.866;30.298;2024-03-06T15:14:22;17.8;16;10
57798;PMS7003;43626;53.866;30.298;2024-03-06T15:19:28;17.4;14.8;9.8
57798;PMS7003;43626;53.866;30.298;2024-03-06T15:24:23;18.6;16.6;10.8
57798;PMS7003;43626;53.866;30.298;2024-03-06T15:29:48;27.2;22.6;13
57798;PMS7003;43626;53.866;30.298;2024-03-06T15:34:52;20.4;18.8;11.2
57798;PMS7003;43626;53.866;30.298;2024-03-06T15:39:22;22.8;19;11.4
57798;PMS7003;43626;53.866;30.298;2024-03-06T15:45:05;24.2;20;12
57798;PMS7003;43626;53.866;30.298;2024-03-06T15:49:58;24.2;20;12
57798;PMS7003;43626;53.866;30.298;2024-03-06T15:54:38;31.4;24.4;15
57798;PMS7003;43626;53.866;30.298;2024-03-06T15:59:22;32.5;25.5;14.8
57798;PMS7003;43626;53.866;30.298;2024-03-06T16:04:24;31.4;26.6;14.8
57798;PMS7003;43626;53.866;30.298;2024-03-06T16:10:02;30.4;26.4;16
57798;PMS7003;43626;53.866;30.298;2024-03-06T16:14:22;26.6;24.4;15
57798;PMS7003;43626;53.866;30.298;2024-03-06T16:19:36;33.6;27.8;15.8
57798;PMS7003;43626;53.866;30.298;2024-03-06T16:24:58;32.4;29;15.8
57798;PMS7003;43626;53.866;30.298;2024-03-06T16:30:13;42.2;33.2;20.2
57798;PMS7003;43626;53.866;30.298;2024-03-06T16:34:48;42.2;33.2;20.2
57798;PMS7003;43626;53.866;30.298;2024-03-06T16:40:03;38.6;31.2;18.8
57798;PMS7003;43626;53.866;30.298;2024-03-06T16:44:48;40.2;33.8;19.6
57798;PMS7003;43626;53.866;30.298;2024-03-06T16:49:22;34.8;29.2;16.6
57798;PMS7003;43626;53.866;30.298;2024-03-06T16:54:48;41.8;33.2;19
57798;PMS7003;43626;53.866;30.298;2024-03-06T16:59:34;39;30.6;17.8
57798;PMS7003;43626;53.866;30.298;2024-03-06T17:05:03;44.3;32.8;19
57798;PMS7003;43626;53.866;30.298;2024-03-06T17:09:22;37.8;31.8;19.2
57798;PMS7003;43626;53.866;30.298;2024-03-06T17:14:58;39.6;32.2;18.2
57798;PMS7003;43626;53.866;30.298;2024-03-06T17:20:13;45;35.2;21.4
57798;PMS7003;43626;53.866;30.298;2024-03-06T17:25:10;44.2;35.2;20.6
57798;PMS7003;43626;53.866;30.298;2024-03-06T17:29:22;44.2;35.2;20.6
57798;PMS7003;43626;53.866;30.298;2024-03-06T17:34:53;44.6;34.6;20.8
57798;PMS7003;43626;53.866;30.298;2024-03-06T17:40:11;59.6;44;26.4
57798;PMS7003;43626;53.866;30.298;2024-03-06T17:45:00;59.6;44;26.4
57798;PMS7003;43626;53.866;30.298;2024-03-06T17:49:22;81.4;65.4;35.6
57798;PMS7003;43626;53.866;30.298;2024-03-06T17:55:10;51.8;38.6;22.8
57798;PMS7003;43626;53.866;30.298;2024-03-06T17:59:40;51.8;38.6;22.8
57798;PMS7003;43626;53.866;30.298;2024-03-06T18:09:22;51.6;39.2;23.2
57798;PMS7003;43626;53.866;30.298;2024-03-06T18:15:10;49.6;39;22.8
57798;PMS7003;43626;53.866;30.298;2024-03-06T18:19:22;49.6;39;22.8
57798;PMS7003;43626;53.866;30.298;2024-03-06T18:24:56;48;37.8;22.4
57798;PMS7003;43626;53.866;30.298;2024-03-06T18:30:01;45.2;34.8;21.2
57798;PMS7003;43626;53.866;30.298;2024-03-06T18:34:28;41.2;32.4;19.8
57798;PMS7003;43626;53.866;30.298;2024-03-06T18:39:22;33.4;29.6;17.8
57798;PMS7003;43626;53.866;30.298;2024-03-06T18:44:44;40.2;31;18.2
57798;PMS7003;43626;53.866;30.298;2024-03-06T18:49:23;41.4;33.2;20
57798;PMS7003;43626;53.866;30.298;2024-03-06T18:54:39;42.2;34.8;20.4
57798;PMS7003;43626;53.866;30.298;2024-03-06T19:00:13;45;34.5;20.3
57798;PMS7003;43626;53.866;30.298;2024-03-06T19:04:38;45;34.5;20.3
57798;PMS7003;43626;53.866;30.298;2024-03-06T19:10:12;31.8;27.4;15.2
57798;PMS7003;43626;53.866;30.298;2024-03-06T19:14:58;31.8;27.4;15.2
57798;PMS7003;43626;53.866;30.298;2024-03-06T19:20:03;33.4;26.8;14.4
57798;PMS7003;43626;53.866;30.298;2024-03-06T19:24:51;33;26.6;16.4
57798;PMS7003;43626;53.866;30.298;2024-03-06T19:29:53;31.2;25.2;14.2
57798;PMS7003;43626;53.866;30.298;2024-03-06T19:35:13;43.6;35.8;21.2
57798;PMS7003;43626;53.866;30.298;2024-03-06T19:40:13;37.6;32;17.8
57798;PMS7003;43626;53.866;30.298;2024-03-06T19:44:47;37.6;32;17.8
57798;PMS7003;43626;53.866;30.298;2024-03-06T19:50:13;38.6;31.6;17
57798;PMS7003;43626;53.866;30.298;2024-03-06T19:54:31;38.6;31.6;17
57798;PMS7003;43626;53.866;30.298;2024-03-06T19:59:59;30;24.2;13.4
57798;PMS7003;43626;53.866;30.298;2024-03-06T20:04:49;27.8;23.3;13
57798;PMS7003;43626;53.866;30.298;2024-03-06T20:09:31;35.6;28.4;15.8
57798;PMS7003;43626;53.866;30.298;2024-03-06T20:14:47;41.4;32;17.2
57798;PMS7003;43626;53.866;30.298;2024-03-06T20:24:23;38;29.4;16.4
57798;PMS7003;43626;53.866;30.298;2024-03-06T20:29:31;34.8;28;16
57798;PMS7003;43626;53.866;30.298;2024-03-06T20:35:13;24.6;21.4;12.2
57798;PMS7003;43626;53.866;30.298;2024-03-06T20:39:43;24.6;21.4;12.2
57798;PMS7003;43626;53.866;30.298;2024-03-06T20:45:13;37.8;29.8;17.2
57798;PMS7003;43626;53.866;30.298;2024-03-06T20:49:59;37.8;29.8;17.2
57798;PMS7003;43626;53.866;30.298;2024-03-06T20:55:03;36.4;27.4;15.6
57798;PMS7003;43626;53.866;30.298;2024-03-06T20:59:51;33.8;28;16
57798;PMS7003;43626;53.866;30.298;2024-03-06T21:04:45;35.3;29.5;16.3
57798;PMS7003;43626;53.866;30.298;2024-03-06T21:10:13;48.6;36.2;20
57798;PMS7003;43626;53.866;30.298;2024-03-06T21:14:53;48.6;36.2;20
57798;PMS7003;43626;53.866;30.298;2024-03-06T21:19:31;43.8;35;19.4
57798;PMS7003;43626;53.866;30.298;2024-03-06T21:25:13;50.8;36.4;20.2
57798;PMS7003;43626;53.866;30.298;2024-03-06T21:29:55;50.8;36.4;20.2
57798;PMS7003;43626;53.866;30.298;2024-03-06T21:34:41;63.8;46.8;24.8
57798;PMS7003;43626;53.866;30.298;2024-03-06T21:40:13;54.4;40.8;22.2
57798;PMS7003;43626;53.866;30.298;2024-03-06T21:44:31;54.4;40.8;22.2
57798;PMS7003;43626;53.866;30.298;2024-03-06T21:49:35;59.8;44;24.4
57798;PMS7003;43626;53.866;30.298;2024-03-06T21:54:23;57.4;44;24.4
57798;PMS7003;43626;53.866;30.298;2024-03-06T21:59:31;62.6;46;24.4
57798;PMS7003;43626;53.866;30.298;2024-03-06T22:04:37;51.4;40;22.8
57798;PMS7003;43626;53.866;30.298;2024-03-06T22:09:45;45.8;36;21.5
57798;PMS7003;43626;53.866;30.298;2024-03-06T22:14:39;47.4;36.6;21.4
57798;PMS7003;43626;53.866;30.298;2024-03-06T22:20:13;47.2;37.2;22
57798;PMS7003;43626;53.866;30.298;2024-03-06T22:24:59;47.2;37.2;22
57798;PMS7003;43626;53.866;30.298;2024-03-06T22:29:31;41.6;33.2;18.6
57798;PMS7003;43626;53.866;30.298;2024-03-06T22:34:43;37;31.2;16.6
57798;PMS7003;43626;53.866;30.298;2024-03-06T22:39:53;43.6;33.4;18.8
57798;PMS7003;43626;53.866;30.298;2024-03-06T22:45:03;39.4;31.8;17.6
57798;PMS7003;43626;53.866;30.298;2024-03-06T22:49:35;41.2;33.4;19
57798;PMS7003;43626;53.866;30.298;2024-03-06T22:55:03;37.6;31.8;19.4
57798;PMS7003;43626;53.866;30.298;2024-03-06T23:00:13;45.4;34.6;18.8
57798;PMS7003;43626;53.866;30.298;2024-03-06T23:05:13;46.8;35;20
57798;PMS7003;43626;53.866;30.298;2024-03-06T23:09:41;46.8;35;20
57798;PMS7003;43626;53.866;30.298;2024-03-06T23:15:03;40.6;31.8;17.6
57798;PMS7003;43626;53.866;30.298;2024-03-06T23:19:49;45;34.2;19.2
57798;PMS7003;43626;53.866;30.298;2024-03-06T23:24:23;44.6;35.2;19.8
57798;PMS7003;43626;53.866;30.298;2024-03-06T23:29:31;42.8;35.4;19.2
57798;PMS7003;43626;53.866;30.298;2024-03-06T23:34:29;45.2;35;19.4
57798;PMS7003;43626;53.866;30.298;2024-03-06T23:39:37;46.6;35.2;20.4
57798;PMS7003;43626;53.866;30.298;2024-03-06T23:44:23;45.4;35;20
57798;PMS7003;43626;53.866;30.298;2024-03-06T23:49:57;45.2;34;19.8
57798;PMS7003;43626;53.866;30.298;2024-03-06T23:54:59;43.6;33.6;18.8
